Time;durP1;ratioP1;P1;durP2;ratioP2;P2;SDS_P1;SDS_P2;PMS_P1;PMS_P2;Temp;Humidity;BMP_temperature;BMP_pressure;BME280_temperature;BME280_humidity;BME280_pressure;Samples;Min_cycle;Max_cycle;Signal;HPM_P1;HPM_P2
2021/01/21 00:01:55;;;;;;;2.85;1.33;;;15.40;99.90;;;;;;5162711;27;20421;-87
2021/01/21 00:04:24;;;;;;;3.10;1.10;;;15.60;99.90;;;;;;5163002;27;20047;-87
2021/01/21 00:06:51;;;;;;;3.08;1.70;;;15.60;99.90;;;;;;5143416;27;20033;-88
2021/01/21 00:09:20;;;;;;;7.20;6.55;;;15.70;99.90;;;;;;5163115;27;20027;-87
2021/01/21 00:11:48;;;;;;;6.70;3.83;;;15.60;99.90;;;;;;5143054;27;20394;-87
2021/01/21 00:14:16;;;;;;;3.33;1.58;;;15.70;99.90;;;;;;5147718;27;20043;-87
2021/01/21 00:16:44;;;;;;;6.53;1.77;;;15.70;99.90;;;;;;5144592;27;20394;-88
2021/01/21 00:19:13;;;;;;;3.60;1.55;;;15.70;99.90;;;;;;5168108;27;20360;-88
2021/01/21 00:21:41;;;;;;;3.92;1.80;;;15.70;99.90;;;;;;5161703;27;20062;-88
2021/01/21 00:24:09;;;;;;;7.62;2.00;;;15.70;99.90;;;;;;5145597;27;20119;-87
2021/01/21 00:26:37;;;;;;;3.80;1.60;;;15.70;99.90;;;;;;5129105;27;20059;-89
2021/01/21 00:29:05;;;;;;;3.80;1.77;;;15.70;99.90;;;;;;5164276;27;20066;-87
2021/01/21 00:31:33;;;;;;;3.17;1.20;;;15.60;99.90;;;;;;5145501;27;20045;-87
2021/01/21 00:34:01;;;;;;;2.80;1.40;;;15.70;99.90;;;;;;5161740;27;20044;-88
2021/01/21 00:36:29;;;;;;;4.40;1.50;;;15.70;99.90;;;;;;5166498;27;20032;-87
2021/01/21 00:38:57;;;;;;;6.25;1.92;;;15.70;99.90;;;;;;5142295;27;20054;-88
2021/01/21 00:41:26;;;;;;;9.20;8.02;;;15.70;99.90;;;;;;5162260;27;20031;-87
2021/01/21 00:43:54;;;;;;;8.82;8.18;;;15.70;99.90;;;;;;5165688;27;20111;-87
2021/01/21 00:46:22;;;;;;;8.73;8.05;;;15.70;99.90;;;;;;5166561;27;20054;-88
2021/01/21 00:48:51;;;;;;;8.38;7.47;;;15.70;99.90;;;;;;5143227;27;20035;-87
2021/01/21 00:51:19;;;;;;;8.13;7.62;;;15.70;99.90;;;;;;5161153;27;20406;-87
2021/01/21 00:53:51;;;;;;;9.10;8.60;;;15.70;99.90;;;;;;5162131;27;20059;-87
2021/01/21 00:56:20;;;;;;;7.82;7.32;;;15.90;99.90;;;;;;5164902;27;20044;-88
2021/01/21 00:58:49;;;;;;;2.87;0.90;;;15.90;99.90;;;;;;5160544;27;20043;-88
2021/01/21 01:01:18;;;;;;;3.00;1.08;;;15.90;99.90;;;;;;5159151;27;20035;-87
2021/01/21 01:03:47;;;;;;;3.17;1.10;;;15.90;99.90;;;;;;5158768;27;20061;-87
2021/01/21 01:06:15;;;;;;;2.47;1.35;;;15.90;99.90;;;;;;5164497;27;20031;-89
2021/01/21 01:08:43;;;;;;;3.10;1.15;;;15.90;99.90;;;;;;5160305;27;20059;-87
2021/01/21 01:11:11;;;;;;;4.00;1.30;;;15.90;99.90;;;;;;5140614;27;20753;-87
2021/01/21 01:13:40;;;;;;;7.68;7.07;;;15.90;99.90;;;;;;5159452;27;20073;-88
2021/01/21 01:16:10;;;;;;;6.82;6.32;;;15.90;99.90;;;;;;5143940;27;20562;-86
2021/01/21 01:18:39;;;;;;;1.98;0.90;;;15.90;99.90;;;;;;5143611;27;20880;-87
2021/01/21 01:21:07;;;;;;;2.72;1.02;;;15.90;99.90;;;;;;5155389;27;20043;-87
2021/01/21 01:23:36;;;;;;;1.00;0.73;;;15.90;99.90;;;;;;5160219;27;20047;-87
2021/01/21 01:26:03;;;;;;;1.98;1.15;;;15.90;99.90;;;;;;5165882;27;20055;-87
2021/01/21 01:28:31;;;;;;;3.17;1.60;;;15.90;99.90;;;;;;5146768;27;20071;-88
2021/01/21 01:31:01;;;;;;;6.95;6.43;;;15.90;99.90;;;;;;5162591;27;20035;-87
2021/01/21 01:33:31;;;;;;;7.50;6.90;;;16.00;99.90;;;;;;5166062;27;20059;-89
2021/01/21 01:35:59;;;;;;;7.28;6.65;;;15.90;99.90;;;;;;5165987;27;20194;-87
2021/01/21 01:38:28;;;;;;;5.50;4.97;;;15.90;99.90;;;;;;5164843;27;20379;-87
2021/01/21 01:41:00;;;;;;;3.83;3.55;;;15.90;99.90;;;;;;5160795;27;20057;-87
2021/01/21 01:43:29;;;;;;;1.37;1.00;;;15.90;99.90;;;;;;5164962;27;20061;-87
2021/01/21 01:45:58;;;;;;;6.30;4.70;;;16.00;99.90;;;;;;5164700;27;20024;-87
2021/01/21 01:48:27;;;;;;;6.85;6.40;;;16.00;99.90;;;;;;5164502;27;20418;-87
2021/01/21 01:50:58;;;;;;;6.30;5.90;;;15.90;99.90;;;;;;5163837;27;20035;-87
2021/01/21 01:53:34;;;;;;;1.60;1.00;;;15.90;99.90;;;;;;5163168;27;20031;-87
2021/01/21 01:56:04;;;;;;;3.20;1.10;;;15.90;99.90;;;;;;5163889;27;20078;-87
2021/01/21 01:58:33;;;;;;;4.87;4.57;;;15.90;99.90;;;;;;5161831;27;20414;-88
2021/01/21 02:01:02;;;;;;;6.28;5.78;;;15.90;99.90;;;;;;5161867;27;20486;-87
2021/01/21 02:03:31;;;;;;;5.55;5.05;;;15.90;99.90;;;;;;5165382;27;20062;-87
2021/01/21 02:06:04;;;;;;;6.50;5.93;;;15.90;99.90;;;;;;5162365;27;20454;-88
2021/01/21 02:08:33;;;;;;;2.17;1.10;;;15.90;99.90;;;;;;5162157;27;20478;-87
2021/01/21 02:11:09;;;;;;;3.33;1.15;;;15.90;99.90;;;;;;5147803;27;20093;-87
2021/01/21 02:13:54;;;;;;;2.03;0.95;;;15.90;99.90;;;;;;5166168;27;20563;-87
2021/01/21 02:16:22;;;;;;;;;;;15.90;99.90;;;;;;5162877;27;20040;-87
2021/01/21 02:18:55;;;;;;;1.50;1.10;;;15.90;99.90;;;;;;5165429;27;20390;-88
2021/01/21 02:21:45;;;;;;;1.85;0.88;;;15.90;99.90;;;;;;5164169;27;20012;-88
2021/01/21 02:24:47;;;;;;;2.35;1.00;;;15.90;99.90;;;;;;5166930;27;20031;-87
2021/01/21 02:27:20;;;;;;;6.43;5.93;;;15.90;99.90;;;;;;5163696;27;20074;-88
2021/01/21 02:29:49;;;;;;;11.40;10.80;;;15.90;99.90;;;;;;5144916;27;20102;-88
2021/01/21 02:32:51;;;;;;;11.73;11.12;;;15.90;99.90;;;;;;5163545;27;20057;-87
2021/01/21 02:35:25;;;;;;;10.10;9.60;;;15.90;99.90;;;;;;5162020;27;20027;-87
2021/01/21 02:37:56;;;;;;;10.05;9.52;;;15.90;99.90;;;;;;5146906;27;20054;-87
2021/01/21 02:40:26;;;;;;;8.90;8.40;;;15.90;99.90;;;;;;5167171;27;20074;-87
2021/01/21 02:42:55;;;;;;;7.60;7.12;;;15.90;99.90;;;;;;5167196;27;20051;-87
2021/01/21 02:45:24;;;;;;;2.85;1.62;;;15.90;99.90;;;;;;5162717;27;20079;-87
2021/01/21 02:47:53;;;;;;;1.40;0.80;;;15.90;99.90;;;;;;5147807;27;20078;-87
2021/01/21 02:50:21;;;;;;;1.75;0.90;;;15.90;99.90;;;;;;5147866;27;20070;-86
2021/01/21 02:53:00;;;;;;;7.07;6.47;;;15.90;99.90;;;;;;5166878;27;20035;-88
2021/01/21 02:55:47;;;;;;;7.85;7.40;;;15.90;99.90;;;;;;5146114;27;20043;-87
2021/01/21 02:58:40;;;;;;;6.37;5.80;;;16.00;99.90;;;;;;5166157;27;20055;-87
2021/01/21 03:01:11;;;;;;;6.78;5.10;;;16.00;99.90;;;;;;5165418;27;20058;-87
2021/01/21 03:03:41;;;;;;;7.00;6.50;;;15.90;99.90;;;;;;5168920;27;20033;-87
2021/01/21 03:06:11;;;;;;;6.15;5.68;;;16.00;99.90;;;;;;5165155;27;20034;-87
2021/01/21 03:08:39;;;;;;;5.90;5.57;;;16.00;99.90;;;;;;5149604;27;20050;-87
2021/01/21 03:11:14;;;;;;;5.90;5.57;;;16.00;99.90;;;;;;5152847;27;21006;31
2021/01/21 03:13:45;;;;;;;5.62;3.15;;;16.00;99.90;;;;;;5165974;27;20070;-86
2021/01/21 03:16:13;;;;;;;10.40;9.77;;;16.00;99.90;;;;;;5168668;27;20346;-88
2021/01/21 03:18:42;;;;;;;8.27;7.80;;;15.90;99.90;;;;;;5169022;27;20088;-87
2021/01/21 03:21:11;;;;;;;9.45;8.95;;;15.90;99.90;;;;;;5149556;27;20402;-87
2021/01/21 03:23:42;;;;;;;8.98;8.38;;;15.90;99.90;;;;;;5179588;27;20111;-87
2021/01/21 03:26:10;;;;;;;9.55;8.95;;;15.90;99.90;;;;;;5189251;27;20398;-86
2021/01/21 03:28:41;;;;;;;8.80;8.10;;;15.90;99.90;;;;;;5171580;27;20034;-87
2021/01/21 03:31:09;;;;;;;9.75;9.25;;;15.90;99.90;;;;;;5189291;27;20031;-87
2021/01/21 03:33:38;;;;;;;10.27;9.65;;;15.90;99.90;;;;;;5189923;27;20069;-88
2021/01/21 03:36:06;;;;;;;9.50;8.95;;;15.90;99.90;;;;;;5188565;27;20504;-87
2021/01/21 03:38:34;;;;;;;11.10;10.48;;;15.90;99.90;;;;;;5192381;27;20398;-87
2021/01/21 03:41:06;;;;;;;10.93;10.32;;;16.00;99.90;;;;;;5188074;27;20046;-87
2021/01/21 03:43:35;;;;;;;10.10;9.50;;;15.90;99.90;;;;;;5186703;27;20093;-86
2021/01/21 03:46:04;;;;;;;11.40;10.80;;;15.90;99.90;;;;;;5170667;27;20580;-87
2021/01/21 03:48:32;;;;;;;11.30;10.40;;;15.90;99.90;;;;;;5189011;27;20030;-87
2021/01/21 03:51:05;;;;;;;7.45;7.05;;;15.90;99.90;;;;;;5188307;27;20046;-87
2021/01/21 03:53:34;;;;;;;2.70;2.50;;;15.90;99.90;;;;;;5188800;27;20103;-87
2021/01/21 03:56:04;;;;;;;7.18;6.40;;;16.00;99.90;;;;;;5170864;27;20031;-87
2021/01/21 03:58:32;;;;;;;9.45;8.65;;;15.90;99.90;;;;;;5188460;27;20047;-87
2021/01/21 04:01:02;;;;;;;6.78;6.37;;;16.00;99.90;;;;;;5184778;27;20026;-87
2021/01/21 04:03:32;;;;;;;2.30;1.90;;;15.90;99.90;;;;;;5187918;27;20030;-87
2021/01/21 04:06:02;;;;;;;7.70;7.20;;;16.00;99.90;;;;;;5190830;27;20029;-87
2021/01/21 04:08:31;;;;;;;7.97;7.57;;;16.00;99.90;;;;;;5169738;27;20322;-87
2021/01/21 04:11:01;;;;;;;1.87;1.30;;;16.00;99.90;;;;;;5189389;27;20070;-86
2021/01/21 04:13:29;;;;;;;2.83;1.00;;;16.00;99.90;;;;;;5188686;27;20390;-87
2021/01/21 04:15:57;;;;;;;1.92;0.98;;;16.00;99.90;;;;;;5190147;27;20528;-87
2021/01/21 04:18:27;;;;;;;2.42;0.90;;;16.00;99.90;;;;;;5167517;27;20065;-87
2021/01/21 04:20:55;;;;;;;3.95;0.98;;;15.90;99.90;;;;;;5188260;27;20034;-87
2021/01/21 04:23:23;;;;;;;3.67;3.30;;;15.90;99.90;;;;;;5188202;27;20386;-87
2021/01/21 04:25:51;;;;;;;3.78;3.53;;;15.90;99.90;;;;;;5189579;27;20035;-87
2021/01/21 04:28:20;;;;;;;3.90;1.45;;;16.00;99.90;;;;;;5169016;27;20023;-86
2021/01/21 04:30:48;;;;;;;9.57;9.18;;;16.00;99.90;;;;;;5189790;27;20074;-87
2021/01/21 04:33:16;;;;;;;6.00;5.57;;;16.00;99.90;;;;;;5170249;27;20057;-87
2021/01/21 04:35:45;;;;;;;2.92;2.30;;;16.00;99.90;;;;;;5189688;27;20027;-88
2021/01/21 04:38:13;;;;;;;6.62;4.78;;;16.00;99.90;;;;;;5188247;27;20050;-87
2021/01/21 04:40:42;;;;;;;9.45;8.90;;;16.00;99.90;;;;;;5166044;27;20031;-87
2021/01/21 04:43:13;;;;;;;3.97;1.20;;;16.00;99.90;;;;;;5187862;27;20523;-87
2021/01/21 04:45:42;;;;;;;7.30;1.45;;;16.00;99.90;;;;;;5189896;27;20023;-87
2021/01/21 04:48:10;;;;;;;9.73;9.13;;;16.00;99.90;;;;;;5188634;27;20390;-87
2021/01/21 04:50:40;;;;;;;2.83;1.10;;;16.00;99.90;;;;;;5187903;27;20320;-87
2021/01/21 04:53:11;;;;;;;2.28;1.00;;;16.00;99.90;;;;;;5188968;27;20045;-87
2021/01/21 04:55:45;;;;;;;1.55;0.90;;;16.00;99.90;;;;;;5169163;27;20046;-87
2021/01/21 04:58:35;;;;;;;1.83;0.90;;;16.00;99.90;;;;;;5190140;27;20443;-87
2021/01/21 05:01:04;;;;;;;4.20;1.10;;;16.00;99.90;;;;;;5187367;27;20078;-87
2021/01/21 05:03:34;;;;;;;1.50;0.88;;;16.00;99.90;;;;;;5170025;27;20035;-87
2021/01/21 05:06:05;;;;;;;2.47;1.02;;;16.00;99.90;;;;;;5188735;27;20456;-87
2021/01/21 05:08:34;;;;;;;3.90;3.60;;;16.00;99.90;;;;;;5168013;27;20382;-87
2021/01/21 05:11:04;;;;;;;3.67;1.17;;;16.00;99.90;;;;;;5182658;27;20055;-87
2021/01/21 05:13:33;;;;;;;2.55;1.20;;;16.00;99.90;;;;;;5160490;27;20046;-87
2021/01/21 05:16:06;;;;;;;4.28;1.30;;;16.00;99.90;;;;;;5168762;27;20050;-87
2021/01/21 05:18:36;;;;;;;4.05;1.40;;;16.00;99.90;;;;;;5163877;27;20031;-87
2021/01/21 05:21:07;;;;;;;5.60;1.55;;;16.00;99.90;;;;;;5150670;27;20031;-86
2021/01/21 05:23:39;;;;;;;4.75;1.62;;;16.00;99.90;;;;;;5168005;27;20030;-87
2021/01/21 05:26:08;;;;;;;3.05;1.30;;;16.00;99.90;;;;;;5188779;27;20078;-87
2021/01/21 05:28:37;;;;;;;1.80;1.00;;;16.00;99.90;;;;;;5185389;27;20033;-87
2021/01/21 05:31:06;;;;;;;2.33;1.15;;;16.00;99.90;;;;;;5187874;27;20058;-87
2021/01/21 05:33:36;;;;;;;2.55;1.20;;;16.00;99.90;;;;;;5187894;27;20031;-87
2021/01/21 05:36:10;;;;;;;3.67;1.30;;;16.00;99.90;;;;;;5166204;27;20027;-87
2021/01/21 05:38:54;;;;;;;1.95;1.10;;;16.00;99.90;;;;;;5161724;27;20050;-88
2021/01/21 05:41:25;;;;;;;2.37;1.30;;;16.00;99.90;;;;;;5186774;27;20018;-87
2021/01/21 05:43:54;;;;;;;4.12;1.30;;;16.00;99.90;;;;;;5169943;27;20370;-86
2021/01/21 05:46:22;;;;;;;2.65;1.10;;;16.00;99.90;;;;;;5170050;27;20045;-88
2021/01/21 05:48:52;;;;;;;1.58;1.20;;;16.00;99.90;;;;;;5184377;27;20118;-87
2021/01/21 05:51:23;;;;;;;3.40;1.20;;;16.00;99.90;;;;;;5168818;27;20063;-87
2021/01/21 05:53:53;;;;;;;3.60;1.33;;;16.00;99.90;;;;;;5168530;27;20075;-87
2021/01/21 05:56:28;;;;;;;2.85;1.40;;;16.00;99.90;;;;;;5166182;27;20057;-87
2021/01/21 05:58:59;;;;;;;4.60;1.40;;;16.00;99.90;;;;;;5166506;27;20050;-88
2021/01/21 06:01:28;;;;;;;3.53;1.30;;;16.00;99.90;;;;;;5188704;27;20411;-86
2021/01/21 06:03:58;;;;;;;1.70;1.10;;;15.90;99.90;;;;;;5187748;27;20065;-87
2021/01/21 06:06:27;;;;;;;2.17;1.00;;;16.00;99.90;;;;;;5185260;27;20434;-87
2021/01/21 06:08:56;;;;;;;3.33;1.17;;;16.00;99.90;;;;;;5185374;27;20062;-86
2021/01/21 06:11:24;;;;;;;1.73;1.20;;;16.00;99.90;;;;;;5189012;27;20495;-88
2021/01/21 06:13:53;;;;;;;1.83;0.90;;;16.00;99.90;;;;;;5188045;27;20354;-87
2021/01/21 06:16:23;;;;;;;1.20;1.10;;;16.00;99.90;;;;;;5186093;27;20036;-87
2021/01/21 06:18:52;;;;;;;2.08;1.00;;;16.00;99.90;;;;;;5167346;27;20038;-87
2021/01/21 06:21:25;;;;;;;1.62;1.10;;;16.00;99.90;;;;;;5171412;27;20038;-87
2021/01/21 06:24:05;;;;;;;3.62;0.90;;;16.00;99.90;;;;;;5185527;27;20429;-88
2021/01/21 06:26:47;;;;;;;1.70;0.82;;;16.00;99.90;;;;;;5164879;27;20047;-87
2021/01/21 06:29:17;;;;;;;2.05;1.10;;;16.10;99.90;;;;;;5186855;27;20353;-88
2021/01/21 06:31:50;;;;;;;3.50;1.20;;;16.00;99.90;;;;;;5189238;27;20023;-87
2021/01/21 06:34:24;;;;;;;3.93;1.10;;;16.00;99.90;;;;;;5184827;27;20074;-87
2021/01/21 06:37:04;;;;;;;2.37;1.07;;;16.00;99.90;;;;;;5167730;27;20464;-87
2021/01/21 06:39:35;;;;;;;2.37;1.10;;;16.00;99.90;;;;;;5189473;27;20034;-87
2021/01/21 06:42:04;;;;;;;3.22;0.98;;;16.00;99.90;;;;;;5188630;27;20382;-88
2021/01/21 06:44:34;;;;;;;2.17;1.02;;;16.00;99.90;;;;;;5183874;27;20038;-87
2021/01/21 06:47:02;;;;;;;1.55;1.02;;;16.00;99.90;;;;;;5186004;27;20437;-88
2021/01/21 06:49:30;;;;;;;2.15;0.90;;;16.00;99.90;;;;;;5188779;27;20026;-87
2021/01/21 06:51:59;;;;;;;2.85;1.00;;;16.00;99.90;;;;;;5170173;27;20069;-87
2021/01/21 06:54:27;;;;;;;1.45;0.80;;;16.00;99.90;;;;;;5184175;27;20105;-87
2021/01/21 06:56:55;;;;;;;0.82;0.80;;;16.00;99.90;;;;;;5184975;27;20062;-88
2021/01/21 06:59:53;;;;;;;2.20;0.80;;;16.00;99.90;;;;;;5168954;27;20030;-87
2021/01/21 07:02:39;;;;;;;3.25;1.05;;;16.00;99.90;;;;;;5177039;27;20089;-88
2021/01/21 07:05:15;;;;;;;2.55;1.00;;;16.10;99.90;;;;;;5184235;27;20058;-88
2021/01/21 07:08:13;;;;;;;1.50;0.88;;;16.00;99.90;;;;;;5187786;27;20066;-88
2021/01/21 07:10:44;;;;;;;1.12;1.00;;;16.00;99.90;;;;;;5170781;27;20034;-87
2021/01/21 07:13:18;;;;;;;2.05;1.10;;;16.00;99.90;;;;;;5167652;27;20042;-88
2021/01/21 07:16:01;;;;;;;1.30;1.20;;;16.10;99.90;;;;;;5185757;27;20037;-87
2021/01/21 07:18:35;;;;;;;3.33;3.00;;;16.10;99.90;;;;;;5190143;27;20037;-88
2021/01/21 07:21:05;;;;;;;6.90;6.40;;;16.10;99.90;;;;;;5187134;27;20030;-87
2021/01/21 07:23:39;;;;;;;6.57;6.20;;;16.10;99.90;;;;;;5164224;27;20042;-88
2021/01/21 07:26:27;;;;;;;6.30;5.90;;;16.10;99.90;;;;;;5185058;27;20500;-88
2021/01/21 07:29:07;;;;;;;6.70;6.40;;;16.10;99.90;;;;;;5188307;27;20385;-88
2021/01/21 07:31:55;;;;;;;6.10;5.80;;;16.10;99.90;;;;;;5183206;27;20053;-87
2021/01/21 07:34:28;;;;;;;6.43;5.95;;;16.10;99.90;;;;;;5181629;27;20035;-88
2021/01/21 07:37:24;;;;;;;8.32;7.72;;;16.10;99.90;;;;;;5185673;27;20027;-88
2021/01/21 07:40:13;;;;;;;8.38;7.95;;;16.20;99.90;;;;;;5187546;27;20066;-88
2021/01/21 07:42:44;;;;;;;5.05;4.62;;;16.10;99.90;;;;;;5185969;27;20034;-87
2021/01/21 07:45:19;;;;;;;5.80;4.00;;;16.10;99.90;;;;;;5187636;27;20050;-88
2021/01/21 07:47:50;;;;;;;4.90;4.60;;;16.10;99.90;;;;;;5190118;27;20023;-87
2021/01/21 07:50:32;;;;;;;5.07;4.78;;;16.10;99.90;;;;;;5188106;27;20081;-87
2021/01/21 07:53:06;;;;;;;9.10;8.70;;;16.10;99.90;;;;;;5169725;27;20088;-88
2021/01/21 07:55:38;;;;;;;7.40;6.78;;;16.10;99.90;;;;;;5189158;27;20019;-87
2021/01/21 07:58:23;;;;;;;5.87;5.47;;;16.10;99.90;;;;;;5190706;27;20073;-87
2021/01/21 08:00:53;;;;;;;6.00;5.60;;;16.10;99.90;;;;;;5168671;27;20019;-87
2021/01/21 08:03:42;;;;;;;1.33;1.00;;;16.20;99.90;;;;;;5170916;27;20057;-88
2021/01/21 08:06:17;;;;;;;4.10;3.90;;;16.20;99.90;;;;;;5171741;27;20070;-88
2021/01/21 08:08:47;;;;;;;8.93;5.55;;;16.20;99.90;;;;;;5152953;27;20042;-88
2021/01/21 08:11:17;;;;;;;1.42;0.75;;;16.30;99.90;;;;;;5184530;27;20057;-87
2021/01/21 08:13:49;;;;;;;6.30;5.80;;;16.30;99.90;;;;;;5188481;27;20039;-87
2021/01/21 08:16:17;;;;;;;7.87;7.28;;;16.30;99.90;;;;;;5169395;27;20427;-88
2021/01/21 08:18:46;;;;;;;10.43;9.70;;;16.40;99.90;;;;;;5189325;27;20090;-87
2021/01/21 08:21:25;;;;;;;8.18;6.43;;;16.40;99.90;;;;;;5185244;27;20046;-88
2021/01/21 08:23:57;;;;;;;6.60;6.20;;;16.40;99.90;;;;;;5167551;27;20407;-88
2021/01/21 08:26:27;;;;;;;5.87;5.57;;;16.40;99.90;;;;;;5169344;27;20034;-87
2021/01/21 08:28:56;;;;;;;6.78;6.37;;;16.40;99.90;;;;;;5171603;27;20027;-87
2021/01/21 08:31:51;;;;;;;7.60;7.20;;;16.50;99.90;;;;;;5170467;27;20027;-88
2021/01/21 08:34:24;;;;;;;7.05;6.65;;;16.50;99.90;;;;;;5168004;27;20027;-88
2021/01/21 08:37:03;;;;;;;6.57;6.18;;;16.60;99.90;;;;;;5169684;27;20023;-88
2021/01/21 08:39:33;;;;;;;4.57;4.28;;;16.70;99.90;;;;;;5170171;27;20026;-88
2021/01/21 08:42:04;;;;;;;5.87;5.45;;;16.70;99.90;;;;;;5187885;27;20030;-88
2021/01/21 08:44:32;;;;;;;3.78;3.28;;;16.80;99.90;;;;;;5190173;27;20003;-88
2021/01/21 08:47:03;;;;;;;4.37;3.40;;;16.80;99.90;;;;;;5188053;27;20074;-88
2021/01/21 08:49:35;;;;;;;7.05;6.62;;;16.80;99.90;;;;;;5170298;27;20183;-87
2021/01/21 08:52:10;;;;;;;7.05;5.35;;;16.80;99.90;;;;;;5188286;27;20350;-88
2021/01/21 08:54:52;;;;;;;5.18;4.45;;;16.80;99.90;;;;;;5189168;27;20038;-87
2021/01/21 08:57:22;;;;;;;3.70;3.40;;;16.90;99.90;;;;;;5170123;27;20019;-88
2021/01/21 08:59:50;;;;;;;6.32;5.93;;;16.90;99.90;;;;;;5167930;27;20051;-88
2021/01/21 09:02:41;;;;;;;4.60;4.30;;;17.00;99.90;;;;;;5186389;27;20442;-88
2021/01/21 09:05:10;;;;;;;5.60;5.20;;;17.10;99.90;;;;;;5186478;27;20054;-88
2021/01/21 09:07:38;;;;;;;9.63;9.13;;;17.10;99.90;;;;;;5171037;27;20087;-88
2021/01/21 09:10:13;;;;;;;6.05;2.90;;;17.20;99.90;;;;;;5186927;27;20229;-88
2021/01/21 09:12:42;;;;;;;1.40;1.10;;;17.20;99.90;;;;;;5168081;27;20062;-88
2021/01/21 09:15:14;;;;;;;1.30;1.20;;;17.30;99.90;;;;;;5187228;27;20062;-88
2021/01/21 09:17:42;;;;;;;3.05;1.10;;;17.40;99.90;;;;;;5188042;27;20042;-88
2021/01/21 09:20:24;;;;;;;5.95;1.48;;;17.40;99.90;;;;;;5170037;27;20027;-88
2021/01/21 09:23:20;;;;;;;2.35;1.80;;;17.50;99.90;;;;;;5188510;27;20484;-86
2021/01/21 09:25:49;;;;;;;4.40;3.40;;;17.50;99.90;;;;;;5171564;27;20480;-87
2021/01/21 09:28:19;;;;;;;5.30;3.75;;;17.50;99.90;;;;;;5188222;27;20038;-88
2021/01/21 09:30:50;;;;;;;4.45;1.00;;;17.50;99.90;;;;;;5186823;27;20402;-88
2021/01/21 09:33:18;;;;;;;2.78;0.80;;;17.60;99.90;;;;;;5187178;27;20074;-88
2021/01/21 09:35:51;;;;;;;6.25;5.80;;;17.70;99.90;;;;;;5189604;27;20046;-89
2021/01/21 09:38:19;;;;;;;5.22;4.93;;;17.70;99.90;;;;;;5188317;27;20026;-88
2021/01/21 09:40:49;;;;;;;7.00;6.30;;;17.90;99.90;;;;;;5189036;27;20453;-88
2021/01/21 09:43:17;;;;;;;12.75;12.05;;;17.90;99.90;;;;;;5187975;27;20031;-88
2021/01/21 09:45:45;;;;;;;1.67;0.50;;;18.00;99.90;;;;;;5187246;27;20038;-87
2021/01/21 09:48:13;;;;;;;4.53;4.28;;;18.10;99.90;;;;;;5185480;27;20073;-89
2021/01/21 09:50:41;;;;;;;2.95;0.65;;;18.10;99.90;;;;;;5188744;27;20031;-88
2021/01/21 09:53:10;;;;;;;2.65;2.22;;;18.30;99.90;;;;;;5188226;27;20042;-88
2021/01/21 09:55:38;;;;;;;2.00;0.60;;;18.40;99.90;;;;;;5170324;27;20070;-88
2021/01/21 09:58:18;;;;;;;4.18;3.15;;;18.60;99.90;;;;;;5187295;27;20389;-88
2021/01/21 10:00:46;;;;;;;1.05;0.73;;;18.50;99.90;;;;;;5188064;27;20422;-88
2021/01/21 10:03:14;;;;;;;1.98;0.50;;;18.70;99.90;;;;;;5187873;27;20031;-88
2021/01/21 10:05:42;;;;;;;5.10;1.58;;;18.70;99.90;;;;;;5185291;27;20564;-88
2021/01/21 10:08:10;;;;;;;1.37;0.80;;;18.80;99.90;;;;;;5187029;27;20464;-88
2021/01/21 10:10:39;;;;;;;5.62;0.70;;;19.00;99.90;;;;;;5184410;27;20067;-88
2021/01/21 10:13:07;;;;;;;0.50;0.50;;;19.00;99.90;;;;;;5187864;27;20363;-88
2021/01/21 10:15:38;;;;;;;0.45;0.45;;;19.20;99.90;;;;;;5188179;27;20019;-88
2021/01/21 10:18:06;;;;;;;0.75;0.40;;;19.50;99.90;;;;;;5187718;27;20394;-88
2021/01/21 10:20:34;;;;;;;1.42;0.60;;;19.80;99.90;;;;;;5186972;27;20035;-88
2021/01/21 10:23:03;;;;;;;5.40;5.10;;;19.90;99.90;;;;;;5167956;27;20275;-88
2021/01/21 10:25:31;;;;;;;1.08;0.50;;;20.00;99.90;;;;;;5170471;27;20029;-88
2021/01/21 10:27:59;;;;;;;0.60;0.50;;;20.10;99.90;;;;;;5190211;27;20065;-89
2021/01/21 10:30:27;;;;;;;1.05;0.50;;;20.30;99.90;;;;;;5187300;27;20034;-89
2021/01/21 10:32:56;;;;;;;2.42;2.33;;;20.60;99.90;;;;;;5189233;27;20041;-88
2021/01/21 10:35:24;;;;;;;2.08;1.42;;;20.90;98.90;;;;;;5168015;27;20060;-88
2021/01/21 10:37:52;;;;;;;1.25;0.50;;;21.70;97.80;;;;;;5168683;27;20046;-89
2021/01/21 10:40:20;;;;;;;0.40;0.40;;;21.40;96.50;;;;;;5166193;27;20035;-89
2021/01/21 10:42:48;;;;;;;9.20;8.60;;;21.60;96.40;;;;;;5170519;27;20078;-89
2021/01/21 10:45:16;;;;;;;5.80;5.50;;;21.90;95.40;;;;;;5188712;27;20032;-89
2021/01/21 10:47:44;;;;;;;7.70;7.30;;;21.50;95.50;;;;;;5191077;27;20034;-88
2021/01/21 10:50:13;;;;;;;3.50;3.40;;;21.90;95.50;;;;;;5189689;27;20054;-88
2021/01/21 10:52:41;;;;;;;3.00;0.50;;;22.10;94.70;;;;;;5171498;27;20035;-89
2021/01/21 10:55:10;;;;;;;0.40;0.40;;;22.30;94.00;;;;;;5186178;27;20468;-89
2021/01/21 10:57:37;;;;;;;1.90;1.62;;;22.60;94.30;;;;;;5190292;27;20555;-89
2021/01/21 11:00:06;;;;;;;0.60;0.60;;;22.70;93.80;;;;;;5187817;27;20035;-89
2021/01/21 11:02:34;;;;;;;1.08;0.55;;;22.50;93.10;;;;;;5190485;27;20039;-88
2021/01/21 11:05:03;;;;;;;0.95;0.70;;;22.60;93.90;;;;;;5170141;27;20054;-89
2021/01/21 11:07:31;;;;;;;1.10;0.70;;;23.00;93.80;;;;;;5190283;27;20476;-89
2021/01/21 11:10:00;;;;;;;1.55;0.45;;;23.20;92.70;;;;;;5190954;27;20450;-88
2021/01/21 11:12:47;;;;;;;1.30;0.70;;;23.70;91.90;;;;;;5154203;27;20046;-89
2021/01/21 11:15:17;;;;;;;1.25;0.80;;;24.00;90.70;;;;;;5187768;27;20011;-87
2021/01/21 11:17:46;;;;;;;1.62;0.80;;;24.90;90.10;;;;;;5189186;27;20058;-87
2021/01/21 11:20:15;;;;;;;3.87;0.80;;;26.20;84.00;;;;;;5190631;27;20028;-87
2021/01/21 11:22:43;;;;;;;2.83;0.60;;;26.40;79.50;;;;;;5187710;27;20022;-87
2021/01/21 11:25:12;;;;;;;1.92;0.60;;;25.70;80.70;;;;;;5188941;27;20033;-87
2021/01/21 11:28:00;;;;;;;2.25;0.70;;;25.50;82.30;;;;;;5174523;27;20074;-87
2021/01/21 11:30:30;;;;;;;2.20;0.70;;;24.80;83.40;;;;;;5189806;27;20051;-86
2021/01/21 11:32:59;;;;;;;3.45;1.37;;;24.80;84.40;;;;;;5188788;27;20473;-87
2021/01/21 11:35:28;;;;;;;0.75;0.40;;;26.80;80.60;;;;;;5168256;27;20046;-87
2021/01/21 11:37:56;;;;;;;0.90;0.90;;;27.30;73.80;;;;;;5170907;27;20073;-87
2021/01/21 11:40:24;;;;;;;0.73;0.50;;;30.00;68.60;;;;;;5189576;27;20028;-87
2021/01/21 11:42:52;;;;;;;0.55;0.40;;;28.70;68.40;;;;;;5190737;27;20032;-87
2021/01/21 11:45:20;;;;;;;1.62;0.40;;;26.70;72.40;;;;;;5189643;27;20027;-89
2021/01/21 11:47:48;;;;;;;0.73;0.50;;;26.00;77.10;;;;;;5187942;27;20057;-87
2021/01/21 11:50:18;;;;;;;1.00;0.82;;;25.00;78.90;;;;;;5187041;27;20047;-87
2021/01/21 11:52:46;;;;;;;1.02;1.02;;;24.60;84.80;;;;;;5188848;27;20414;-87
2021/01/21 11:55:14;;;;;;;2.28;0.43;;;28.40;72.60;;;;;;5188389;27;20054;-88
2021/01/21 11:57:43;;;;;;;1.45;0.30;;;28.90;65.80;;;;;;5188827;27;20377;-87
2021/01/21 12:00:13;;;;;;;0.60;0.60;;;27.00;71.30;;;;;;5189358;27;20023;-87
2021/01/21 12:02:42;;;;;;;1.10;0.73;;;28.40;69.40;;;;;;5188016;27;20031;-87
2021/01/21 12:05:11;;;;;;;0.75;0.40;;;30.20;65.60;;;;;;5169187;27;20044;-87
2021/01/21 12:07:39;;;;;;;0.43;0.43;;;28.10;65.60;;;;;;5189768;27;20679;-87
2021/01/21 12:10:07;;;;;;;0.60;0.50;;;29.20;63.20;;;;;;5188762;27;20069;-87
2021/01/21 12:12:35;;;;;;;1.95;0.55;;;27.50;65.50;;;;;;5188142;27;20059;-87
2021/01/21 12:15:04;;;;;;;0.90;0.65;;;26.20;71.60;;;;;;5189102;27;20318;-86
2021/01/21 12:17:33;;;;;;;0.30;0.30;;;26.40;72.80;;;;;;5188414;27;20051;-86
2021/01/21 12:20:01;;;;;;;0.70;0.30;;;26.50;70.70;;;;;;5153357;27;20038;-87
2021/01/21 12:22:30;;;;;;;0.37;0.30;;;26.10;71.60;;;;;;5169454;27;20073;-87
2021/01/21 12:24:59;;;;;;;1.10;0.20;;;26.00;73.60;;;;;;5188997;27;20129;-86
2021/01/21 12:27:27;;;;;;;0.60;0.50;;;25.20;75.90;;;;;;5170275;27;20030;-86
2021/01/21 12:29:55;;;;;;;0.65;0.40;;;24.90;77.10;;;;;;5186960;27;20042;-86
2021/01/21 12:32:24;;;;;;;1.10;0.70;;;24.30;80.60;;;;;;5188874;27;20073;-86
2021/01/21 12:34:52;;;;;;;0.50;0.50;;;24.10;82.40;;;;;;5186686;27;20015;-86
2021/01/21 12:37:20;;;;;;;0.90;0.90;;;25.50;79.70;;;;;;5186541;27;20023;-86
2021/01/21 12:39:49;;;;;;;0.70;0.50;;;28.70;69.60;;;;;;5169170;27;20401;-87
2021/01/21 12:42:17;;;;;;;0.40;0.40;;;28.90;66.70;;;;;;5168108;27;20071;-87
2021/01/21 12:44:45;;;;;;;1.25;0.40;;;27.80;67.60;;;;;;5186889;27;20389;-87
2021/01/21 12:47:13;;;;;;;7.47;0.50;;;26.40;73.00;;;;;;5169855;27;20035;-87
2021/01/21 12:49:42;;;;;;;0.43;0.40;;;25.70;76.30;;;;;;5170555;27;20031;-86
2021/01/21 12:52:12;;;;;;;2.15;0.40;;;25.50;77.30;;;;;;5171075;27;20480;-86
2021/01/21 12:54:42;;;;;;;5.22;0.80;;;26.00;77.40;;;;;;5171048;27;20106;-86
2021/01/21 12:57:10;;;;;;;2.00;0.60;;;26.70;75.90;;;;;;5188115;27;20092;-86
2021/01/21 12:59:38;;;;;;;1.12;0.60;;;26.30;75.50;;;;;;5171809;27;20034;-86
2021/01/21 13:02:06;;;;;;;1.75;0.60;;;26.20;76.10;;;;;;5190341;27;20038;-87
2021/01/21 13:04:35;;;;;;;1.08;0.50;;;27.00;74.70;;;;;;5187614;27;20015;-87
2021/01/21 13:07:04;;;;;;;1.48;0.50;;;27.20;73.30;;;;;;5187394;27;20027;-86